createdAt,value
2017-11-10T00:02:24.061Z,8.20
2017-11-10T00:04:51.564Z,8.20
2017-11-10T00:07:19.053Z,8.20
2017-11-10T00:09:46.548Z,8.20
2017-11-10T00:12:14.081Z,8.20
2017-11-10T00:14:41.594Z,8.20
2017-11-10T00:17:09.854Z,8.20
2017-11-10T00:19:38.143Z,8.20
2017-11-10T00:22:06.406Z,8.20
2017-11-10T00:24:34.653Z,8.20
2017-11-10T00:27:02.129Z,8.10
2017-11-10T00:29:30.389Z,8.10
2017-11-10T00:31:57.930Z,8.10
2017-11-10T00:34:25.378Z,8.20
2017-11-10T00:36:52.839Z,8.20
2017-11-10T00:39:20.304Z,8.20
2017-11-10T00:41:48.524Z,8.10
2017-11-10T00:44:15.999Z,8.10
2017-11-10T00:46:43.545Z,8.20
2017-11-10T00:49:11.010Z,8.10
2017-11-10T00:51:38.533Z,8.10
2017-11-10T00:54:06.781Z,8.20
2017-11-10T00:56:34.241Z,8.20
2017-11-10T00:59:02.489Z,8.20
2017-11-10T01:01:30.713Z,8.20
2017-11-10T01:03:58.189Z,8.20
2017-11-10T01:06:25.649Z,8.10
2017-11-10T01:08:53.892Z,8.10
2017-11-10T01:11:22.134Z,8.00
2017-11-10T01:13:49.584Z,8.00
2017-11-10T01:16:17.125Z,8.00
2017-11-10T01:18:44.680Z,8.00
2017-11-10T01:21:13.081Z,8.00
2017-11-10T01:23:40.538Z,8.00
2017-11-10T01:26:08.025Z,8.00
2017-11-10T01:28:35.569Z,8.00
2017-11-10T01:31:03.132Z,8.10
2017-11-10T01:33:31.357Z,8.10
2017-11-10T01:35:58.809Z,8.10
2017-11-10T01:38:26.354Z,8.10
2017-11-10T01:40:53.825Z,8.10
2017-11-10T01:43:21.373Z,8.10
2017-11-10T01:45:48.918Z,8.00
2017-11-10T01:48:22.205Z,8.00
2017-11-10T01:50:49.649Z,8.00
2017-11-10T01:53:17.167Z,8.00
2017-11-10T01:55:44.631Z,8.00
2017-11-10T01:58:12.117Z,8.00
2017-11-10T02:00:39.585Z,8.00
2017-11-10T02:03:07.038Z,8.10
2017-11-10T02:05:35.288Z,8.10
2017-11-10T02:08:02.741Z,8.10
2017-11-10T02:10:30.199Z,8.10
2017-11-10T02:12:57.670Z,8.10
2017-11-10T02:15:25.935Z,8.10
2017-11-10T02:17:53.374Z,8.10
2017-11-10T02:20:20.869Z,8.10
2017-11-10T02:22:48.326Z,8.10
2017-11-10T02:25:16.573Z,8.10
2017-11-10T02:27:44.114Z,8.10
2017-11-10T02:30:11.767Z,8.00
2017-11-10T02:32:39.214Z,8.10
2017-11-10T02:35:07.465Z,8.10
2017-11-10T02:37:35.006Z,8.10
2017-11-10T02:40:02.475Z,8.10
2017-11-10T02:42:29.989Z,8.10
2017-11-10T02:44:57.534Z,8.10
2017-11-10T02:47:25.799Z,8.20
2017-11-10T02:49:54.018Z,8.20
2017-11-10T02:52:21.478Z,8.20
2017-11-10T02:54:49.139Z,8.10
2017-11-10T02:57:16.682Z,8.10
2017-11-10T02:59:44.228Z,8.10
2017-11-10T03:02:11.686Z,8.10
2017-11-10T03:04:39.925Z,8.10
2017-11-10T03:07:07.418Z,8.10
2017-11-10T03:09:34.877Z,8.10
2017-11-10T03:12:02.330Z,8.10
2017-11-10T03:14:29.798Z,8.10
2017-11-10T03:16:57.249Z,8.10
2017-11-10T03:19:25.497Z,8.10
2017-11-10T03:21:53.854Z,8.10
2017-11-10T03:24:21.305Z,8.10
2017-11-10T03:26:49.533Z,8.20
2017-11-10T03:29:17.010Z,8.10
2017-11-10T03:31:45.225Z,8.20
2017-11-10T03:34:12.707Z,8.20
2017-11-10T03:36:40.170Z,8.20
2017-11-10T03:39:07.625Z,8.20
2017-11-10T03:41:35.129Z,8.20
2017-11-10T03:44:02.669Z,8.20
2017-11-10T03:46:30.209Z,8.20
2017-11-10T03:48:57.693Z,8.20
2017-11-10T03:51:25.149Z,8.20
2017-11-10T03:53:52.597Z,8.20
2017-11-10T03:56:20.081Z,8.20
2017-11-10T03:58:48.333Z,8.20
2017-11-10T04:01:15.785Z,8.20
2017-11-10T04:03:44.017Z,8.20
2017-11-10T04:06:11.481Z,8.20
2017-11-10T04:08:39.714Z,8.20
2017-11-10T04:11:07.241Z,8.20
2017-11-10T04:13:34.710Z,8.20
2017-11-10T04:16:02.169Z,8.20
2017-11-10T04:18:29.713Z,8.20
2017-11-10T04:20:57.309Z,8.30
2017-11-10T04:23:24.797Z,8.30
2017-11-10T04:25:52.254Z,8.30
2017-11-10T04:28:20.529Z,8.30
2017-11-10T04:30:48.761Z,8.30
2017-11-10T04:33:16.218Z,8.30
2017-11-10T04:35:44.437Z,8.30
2017-11-10T04:38:11.906Z,8.20
2017-11-10T04:40:39.403Z,8.30
2017-11-10T04:43:06.864Z,8.30
2017-11-10T04:45:34.328Z,8.30
2017-11-10T04:48:01.790Z,8.20
2017-11-10T04:50:30.026Z,8.30
2017-11-10T04:52:57.628Z,8.30
2017-11-10T04:55:25.081Z,8.40
2017-11-10T04:57:52.663Z,8.40
2017-11-10T05:00:20.118Z,8.40
2017-11-10T05:02:48.341Z,8.40
2017-11-10T05:05:15.796Z,8.40
2017-11-10T05:07:43.290Z,8.40
2017-11-10T05:10:10.789Z,8.40
2017-11-10T05:12:38.282Z,8.30
2017-11-10T05:15:05.774Z,8.40
2017-11-10T05:17:33.318Z,8.40
2017-11-10T05:20:01.581Z,8.40
2017-11-10T05:22:29.839Z,8.40
2017-11-10T05:24:57.310Z,8.40
2017-11-10T05:27:24.761Z,8.40
2017-11-10T05:29:52.234Z,8.40
2017-11-10T05:32:19.705Z,8.40
2017-11-10T05:34:47.181Z,8.50
2017-11-10T05:37:14.651Z,8.50
2017-11-10T05:39:42.107Z,8.50
2017-11-10T05:42:09.569Z,8.50
2017-11-10T05:44:37.046Z,8.50
2017-11-10T05:47:04.494Z,8.60
2017-11-10T05:49:32.008Z,8.60
2017-11-10T05:52:00.237Z,8.60
2017-11-10T05:54:27.901Z,8.60
2017-11-10T05:56:55.362Z,8.60
2017-11-10T05:59:23.578Z,8.70
2017-11-10T06:01:51.076Z,8.60
2017-11-10T06:04:18.542Z,8.60
2017-11-10T06:06:46.034Z,8.60
2017-11-10T06:09:13.569Z,8.60
2017-11-10T06:11:41.114Z,8.60
2017-11-10T06:14:08.573Z,8.60
2017-11-10T06:16:36.918Z,8.60
2017-11-10T06:19:05.281Z,8.60
2017-11-10T06:21:32.826Z,8.50
2017-11-10T06:24:00.306Z,8.60
2017-11-10T06:26:27.810Z,8.60
2017-11-10T06:28:55.268Z,8.60
2017-11-10T06:31:23.717Z,8.70
2017-11-10T06:33:51.258Z,8.70
2017-11-10T06:36:18.800Z,8.70
2017-11-10T06:38:46.345Z,8.70
2017-11-10T06:41:13.889Z,8.70
2017-11-10T06:43:41.433Z,8.70
2017-11-10T06:46:08.893Z,8.70
2017-11-10T06:48:37.118Z,8.70
2017-11-10T06:51:04.677Z,8.70
2017-11-10T06:53:32.220Z,8.70
2017-11-10T06:55:59.764Z,8.70
2017-11-10T06:58:27.227Z,8.70
2017-11-10T07:00:55.465Z,8.70
2017-11-10T07:03:23.109Z,8.70
2017-11-10T07:05:50.657Z,8.80
2017-11-10T07:08:18.123Z,8.80
2017-11-10T07:10:46.562Z,8.80
2017-11-10T07:13:14.781Z,8.70
2017-11-10T07:15:42.237Z,8.70
2017-11-10T07:18:09.701Z,8.80
2017-11-10T07:20:37.243Z,8.80
2017-11-10T07:23:04.801Z,8.80
2017-11-10T07:25:33.017Z,8.80
2017-11-10T07:28:00.477Z,8.80
2017-11-10T07:30:27.953Z,8.80
2017-11-10T07:32:56.172Z,8.80
2017-11-10T07:35:23.633Z,8.80
2017-11-10T07:37:52.701Z,8.80
2017-11-10T07:40:20.262Z,8.80
2017-11-10T07:42:47.710Z,8.80
2017-11-10T07:45:15.942Z,8.70
2017-11-10T07:47:43.389Z,8.70
2017-11-10T07:50:10.853Z,8.80
2017-11-10T07:52:39.089Z,8.70
2017-11-10T07:55:06.549Z,8.70
2017-11-10T07:57:34.799Z,8.70
2017-11-10T08:00:02.245Z,8.70
2017-11-10T08:02:30.461Z,8.80
2017-11-10T08:04:57.925Z,8.80
2017-11-10T08:07:25.386Z,8.80
2017-11-10T08:09:52.909Z,8.90
2017-11-10T08:12:20.369Z,8.80
2017-11-10T08:14:47.822Z,8.80
2017-11-10T08:17:16.062Z,8.80
2017-11-10T08:19:43.618Z,8.80
2017-11-10T08:22:11.070Z,8.80
2017-11-10T08:24:39.422Z,8.90
2017-11-10T08:27:06.866Z,8.80
2017-11-10T08:29:35.094Z,8.80
2017-11-10T08:32:02.557Z,8.80
2017-11-10T08:34:30.786Z,8.90
2017-11-10T08:36:58.257Z,8.80
2017-11-10T08:39:25.718Z,8.80
2017-11-10T08:41:53.946Z,8.90
2017-11-10T08:44:21.510Z,8.90
2017-11-10T08:46:48.974Z,8.90
2017-11-10T08:49:16.433Z,9.00
2017-11-10T08:51:43.937Z,9.00
2017-11-10T08:54:12.193Z,9.00
2017-11-10T08:56:39.648Z,9.00
2017-11-10T08:59:08.097Z,9.10
2017-11-10T09:01:35.550Z,9.10
2017-11-10T09:04:03.806Z,9.10
2017-11-10T09:06:31.261Z,9.00
2017-11-10T09:08:59.477Z,9.10
2017-11-10T09:11:26.938Z,9.00
2017-11-10T09:13:54.397Z,9.10
2017-11-10T09:16:22.633Z,9.10
2017-11-10T09:18:50.099Z,9.10
2017-11-10T09:21:18.319Z,9.20
2017-11-10T09:23:45.769Z,9.20
2017-11-10T09:26:13.229Z,9.20
2017-11-10T09:29:00.188Z,9.20
2017-11-10T09:34:34.313Z,9.20
2017-11-10T09:37:04.743Z,9.20
2017-11-10T09:39:52.786Z,9.20
2017-11-10T09:42:25.901Z,9.20
2017-11-10T09:45:14.097Z,9.20
2017-11-10T09:47:47.315Z,9.20
2017-11-10T09:53:29.604Z,9.20
2017-11-10T09:55:58.492Z,9.20
2017-11-10T09:58:40.862Z,9.20
2017-11-10T10:01:24.027Z,9.20
2017-11-10T10:06:49.189Z,9.20
2017-11-10T10:09:32.298Z,9.20
2017-11-10T10:12:16.221Z,9.20
2017-11-10T10:14:59.317Z,9.30
2017-11-10T10:20:24.638Z,9.30
2017-11-10T10:23:02.129Z,9.30
2017-11-10T10:25:29.585Z,9.30
2017-11-10T10:27:57.038Z,9.30
2017-11-10T10:30:24.509Z,9.30
2017-11-10T10:32:51.988Z,9.40
2017-11-10T10:35:19.446Z,9.40
2017-11-10T10:37:46.899Z,9.50
2017-11-10T10:40:14.381Z,9.50
2017-11-10T10:42:41.925Z,9.50
2017-11-10T10:45:09.469Z,9.60
2017-11-10T10:47:36.918Z,9.60
2017-11-10T10:50:05.144Z,9.70
2017-11-10T10:52:32.814Z,9.70
2017-11-10T10:55:01.041Z,9.80
2017-11-10T10:57:28.494Z,9.80
2017-11-10T10:59:56.053Z,9.80
2017-11-10T11:02:23.609Z,9.80
2017-11-10T11:04:51.817Z,9.90
2017-11-10T11:07:19.303Z,9.90
2017-11-10T11:09:47.565Z,9.90
2017-11-10T11:12:15.021Z,9.90
2017-11-10T11:14:43.265Z,9.90
2017-11-10T11:17:10.729Z,9.80
2017-11-10T11:19:38.185Z,9.80
2017-11-10T11:22:05.686Z,9.90
2017-11-10T11:24:33.234Z,9.90
2017-11-10T11:27:00.685Z,9.90
2017-11-10T11:29:28.900Z,9.90
2017-11-10T11:31:56.478Z,9.90
2017-11-10T11:34:24.025Z,9.90
2017-11-10T11:36:52.282Z,9.90
2017-11-10T11:39:20.542Z,9.90
2017-11-10T11:41:48.195Z,9.90
2017-11-10T11:44:16.435Z,9.90
2017-11-10T11:46:43.892Z,9.90
2017-11-10T11:49:11.353Z,9.90
2017-11-10T11:51:39.594Z,10.00
2017-11-10T11:54:07.054Z,10.00
2017-11-10T11:56:35.273Z,10.00
2017-11-10T11:59:02.845Z,10.00
2017-11-10T12:01:31.058Z,10.00
2017-11-10T12:03:58.525Z,10.00
2017-11-10T12:06:26.181Z,10.00
2017-11-10T12:08:53.724Z,10.00
2017-11-10T12:11:21.991Z,10.10
2017-11-10T12:13:49.455Z,10.10
2017-11-10T12:16:16.934Z,10.10
2017-11-10T12:18:44.414Z,10.10
2017-11-10T12:21:11.957Z,10.20
2017-11-10T12:23:39.601Z,10.20
2017-11-10T12:26:07.061Z,10.20
2017-11-10T12:28:35.285Z,10.10
2017-11-10T12:31:02.767Z,10.10
2017-11-10T12:33:30.226Z,10.10
2017-11-10T12:35:57.689Z,10.00
2017-11-10T12:38:25.169Z,10.00
2017-11-10T12:40:53.390Z,9.80
2017-11-10T12:43:20.869Z,9.80
2017-11-10T12:45:48.417Z,9.70
2017-11-10T12:48:16.640Z,9.70
2017-11-10T12:50:44.096Z,9.70
2017-11-10T12:53:11.653Z,9.70
2017-11-10T12:55:39.233Z,9.80
2017-11-10T12:58:06.749Z,9.70
2017-11-10T13:00:34.222Z,9.70
2017-11-10T13:03:01.673Z,9.70
2017-11-10T13:05:29.175Z,9.70
2017-11-10T13:07:57.436Z,9.80
2017-11-10T13:10:24.886Z,9.80
2017-11-10T13:12:53.105Z,9.80
2017-11-10T13:15:20.679Z,9.80
2017-11-10T13:17:48.127Z,9.90
2017-11-10T13:20:16.342Z,9.90
2017-11-10T13:22:43.797Z,9.90
2017-11-10T13:25:11.244Z,9.90
2017-11-10T13:27:38.802Z,9.90
2017-11-10T13:30:06.257Z,9.90
2017-11-10T13:32:34.611Z,10.00
2017-11-10T13:35:02.077Z,10.00
2017-11-10T13:37:29.598Z,10.00
2017-11-10T13:39:57.832Z,10.00
2017-11-10T13:42:25.294Z,10.00
2017-11-10T13:44:52.782Z,10.00
2017-11-10T13:47:20.276Z,10.00
2017-11-10T13:49:47.737Z,10.00
2017-11-10T13:52:16.077Z,10.10
2017-11-10T13:54:44.341Z,10.00
2017-11-10T13:57:11.886Z,10.00
2017-11-10T13:59:39.454Z,9.90
2017-11-10T14:02:07.733Z,9.90
2017-11-10T14:04:35.197Z,9.90
2017-11-10T14:07:02.678Z,9.90
2017-11-10T14:09:30.178Z,9.90
2017-11-10T14:11:57.757Z,9.90
2017-11-10T14:14:25.206Z,9.90
2017-11-10T14:16:53.430Z,9.70
2017-11-10T14:19:21.002Z,9.70
2017-11-10T14:21:48.552Z,9.60
2017-11-10T14:24:16.089Z,9.50
2017-11-10T14:26:43.541Z,9.40
2017-11-10T14:29:11.790Z,9.30
2017-11-10T14:31:39.354Z,9.30
2017-11-10T14:34:07.600Z,9.40
2017-11-10T14:36:35.069Z,9.40
2017-11-10T14:39:02.513Z,9.40
2017-11-10T14:41:30.027Z,9.50
2017-11-10T14:43:57.503Z,9.50
2017-11-10T14:46:25.061Z,9.50
2017-11-10T14:48:52.546Z,9.50
2017-11-10T14:51:20.130Z,9.50
2017-11-10T14:53:47.583Z,9.50
2017-11-10T14:56:15.036Z,9.50
2017-11-10T14:58:42.498Z,9.50
2017-11-10T15:01:09.959Z,9.50
2017-11-10T15:03:37.502Z,9.40
2017-11-10T15:06:04.952Z,9.40
2017-11-10T15:08:33.205Z,9.40
2017-11-10T15:11:00.653Z,9.30
2017-11-10T15:13:28.865Z,9.20
2017-11-10T15:15:56.329Z,9.20
2017-11-10T15:18:23.781Z,9.20
2017-11-10T15:20:51.229Z,9.10
2017-11-10T15:23:18.686Z,9.10
2017-11-10T15:25:46.937Z,9.00
2017-11-10T15:28:14.470Z,9.00
2017-11-10T15:30:41.922Z,9.00
2017-11-10T15:33:10.138Z,8.90
2017-11-10T15:35:37.618Z,8.90
2017-11-10T15:38:05.158Z,9.00
2017-11-10T15:40:32.605Z,8.90
2017-11-10T15:43:00.146Z,8.90
2017-11-10T15:45:27.688Z,8.90
2017-11-10T15:47:55.130Z,8.80
2017-11-10T15:50:22.590Z,8.80
2017-11-10T15:52:50.817Z,8.70
2017-11-10T15:55:18.274Z,8.70
2017-11-10T15:57:46.494Z,8.60
2017-11-10T16:00:13.967Z,8.60
2017-11-10T16:02:41.412Z,8.60
2017-11-10T16:05:08.856Z,8.60
2017-11-10T16:07:36.397Z,8.50
2017-11-10T16:10:03.946Z,8.50
2017-11-10T16:12:31.481Z,8.50
2017-11-10T16:14:58.949Z,8.40
2017-11-10T16:17:27.157Z,8.50
2017-11-10T16:19:54.631Z,8.50
2017-11-10T16:22:22.166Z,8.50
2017-11-10T16:24:49.719Z,8.50
2017-11-10T16:27:17.942Z,8.30
2017-11-10T16:29:45.413Z,8.30
2017-11-10T16:32:12.958Z,8.30
2017-11-10T16:34:40.410Z,8.20
2017-11-10T16:37:08.660Z,8.10
2017-11-10T16:39:36.106Z,8.10
2017-11-10T16:42:03.646Z,8.10
2017-11-10T16:44:31.905Z,8.00
2017-11-10T16:46:59.355Z,8.00
2017-11-10T16:49:27.575Z,7.90
2017-11-10T16:51:55.046Z,7.90
2017-11-10T16:54:22.497Z,7.80
2017-11-10T16:56:50.722Z,7.70
2017-11-10T16:59:18.193Z,7.70
2017-11-10T17:01:46.412Z,7.70
2017-11-10T17:04:13.857Z,7.70
2017-11-10T17:06:41.334Z,7.70
2017-11-10T17:09:08.874Z,7.70
2017-11-10T17:11:37.137Z,7.50
2017-11-10T17:14:04.598Z,7.50
2017-11-10T17:16:32.837Z,7.60
2017-11-10T17:19:00.306Z,7.60
2017-11-10T17:21:27.753Z,7.60
2017-11-10T17:23:55.197Z,7.60
2017-11-10T17:26:22.669Z,7.50
2017-11-10T17:28:50.119Z,7.50
2017-11-10T17:31:17.570Z,7.40
2017-11-10T17:33:45.042Z,7.40
2017-11-10T17:36:13.343Z,7.30
2017-11-10T17:38:40.787Z,7.30
2017-11-10T17:41:08.273Z,7.30
2017-11-10T17:43:35.737Z,7.30
2017-11-10T17:46:03.974Z,7.20
2017-11-10T17:48:31.514Z,7.10
2017-11-10T17:50:58.997Z,7.10
2017-11-10T17:53:26.442Z,7.10
2017-11-10T17:55:53.885Z,7.10
2017-11-10T17:58:21.392Z,7.00
2017-11-10T18:00:48.836Z,7.00
2017-11-10T18:03:17.056Z,6.90
2017-11-10T18:05:44.625Z,6.90
2017-11-10T18:08:12.078Z,7.00
2017-11-10T18:10:39.547Z,7.00
2017-11-10T18:13:07.049Z,7.00
2017-11-10T18:15:34.498Z,7.00
2017-11-10T18:18:01.945Z,6.90
2017-11-10T18:20:30.194Z,6.90
2017-11-10T18:22:57.741Z,6.90
2017-11-10T18:25:25.201Z,6.90
2017-11-10T18:27:53.413Z,6.90
2017-11-10T18:30:20.866Z,6.90
2017-11-10T18:32:48.365Z,6.90
2017-11-10T18:35:15.865Z,6.90
2017-11-10T18:37:43.309Z,6.90
2017-11-10T18:40:10.790Z,6.80
2017-11-10T18:42:38.289Z,6.80
2017-11-10T18:45:06.509Z,6.80
2017-11-10T18:47:33.988Z,6.80
2017-11-10T18:50:01.534Z,6.80
2017-11-10T18:52:29.078Z,6.80
2017-11-10T18:55:02.194Z,6.80
2017-11-10T18:57:29.751Z,6.70
2017-11-10T18:59:57.237Z,6.80
2017-11-10T19:02:24.690Z,6.80
2017-11-10T19:04:53.053Z,6.70
2017-11-10T19:07:21.309Z,6.80
2017-11-10T19:09:48.764Z,6.80
2017-11-10T19:12:17.106Z,6.70
2017-11-10T19:14:44.555Z,6.70
2017-11-10T19:17:12.095Z,6.70
2017-11-10T19:19:39.593Z,6.80
2017-11-10T19:22:07.046Z,6.80
2017-11-10T19:24:34.521Z,6.80
2017-11-10T19:27:02.778Z,6.80
2017-11-10T19:29:30.330Z,6.80
2017-11-10T19:31:58.789Z,6.70
2017-11-10T19:34:26.326Z,6.70
2017-11-10T19:36:53.818Z,6.70
2017-11-10T19:39:21.308Z,6.60
2017-11-10T19:41:48.889Z,6.50
2017-11-10T19:44:16.463Z,6.60
2017-11-10T19:46:44.018Z,6.50
2017-11-10T19:49:11.610Z,6.50
2017-11-10T19:51:39.122Z,6.50
2017-11-10T19:54:06.753Z,6.40
2017-11-10T19:56:34.306Z,6.40
2017-11-10T19:59:01.923Z,6.40
2017-11-10T20:01:29.515Z,6.40
2017-11-10T20:03:57.868Z,6.40
2017-11-10T20:06:26.221Z,6.30
2017-11-10T20:08:53.822Z,6.40
2017-11-10T20:11:21.583Z,6.30
2017-11-10T20:13:49.433Z,6.30
2017-11-10T20:16:17.014Z,6.30
2017-11-10T20:18:45.385Z,6.30
2017-11-10T20:21:13.729Z,6.30
2017-11-10T20:23:41.398Z,6.30
2017-11-10T20:26:09.714Z,6.30
2017-11-10T20:28:37.188Z,6.30
2017-11-10T20:31:04.798Z,6.30
2017-11-10T20:33:32.391Z,6.30
2017-11-10T20:36:00.632Z,6.20
2017-11-10T20:38:28.189Z,6.30
2017-11-10T20:40:55.656Z,6.30
2017-11-10T20:43:23.870Z,6.20
2017-11-10T20:45:51.394Z,6.20
2017-11-10T20:48:18.845Z,6.20
2017-11-10T20:50:46.323Z,6.20
2017-11-10T20:53:13.835Z,6.20
2017-11-10T20:55:41.300Z,6.20
2017-11-10T20:58:08.774Z,6.20
2017-11-10T21:00:37.003Z,6.20
2017-11-10T21:03:04.487Z,6.20
2017-11-10T21:05:32.057Z,6.20
2017-11-10T21:07:59.574Z,6.20
2017-11-10T21:10:27.033Z,6.20
2017-11-10T21:12:54.537Z,6.20
2017-11-10T21:15:22.785Z,6.30
2017-11-10T21:17:50.237Z,6.20
2017-11-10T21:20:18.502Z,6.30
2017-11-10T21:22:46.717Z,6.30
2017-11-10T21:25:14.183Z,6.30
2017-11-10T21:27:41.666Z,6.30
2017-11-10T21:30:09.106Z,6.20
2017-11-10T21:32:36.554Z,6.20
2017-11-10T21:35:04.050Z,6.20
2017-11-10T21:37:32.266Z,6.00
2017-11-10T21:39:59.729Z,6.00
2017-11-10T21:42:27.191Z,6.00
2017-11-10T21:44:54.733Z,6.00
2017-11-10T21:47:22.273Z,6.00
2017-11-10T21:49:49.738Z,5.90
2017-11-10T21:52:17.972Z,5.90
2017-11-10T21:54:45.425Z,5.90
2017-11-10T21:57:13.645Z,5.80
2017-11-10T21:59:41.121Z,5.80
2017-11-10T22:02:08.670Z,5.90
2017-11-10T22:04:36.117Z,5.90
2017-11-10T22:07:04.359Z,5.90
2017-11-10T22:09:31.810Z,5.90
2017-11-10T22:11:59.293Z,5.80
2017-11-10T22:14:26.789Z,5.80
2017-11-10T22:16:54.243Z,5.80
2017-11-10T22:19:22.506Z,5.70
2017-11-10T22:21:50.816Z,5.80
2017-11-10T22:24:18.281Z,5.80
2017-11-10T22:26:45.726Z,5.80
2017-11-10T22:29:13.189Z,5.80
2017-11-10T22:31:41.476Z,5.80
2017-11-10T22:34:08.917Z,5.80
2017-11-10T22:36:36.421Z,5.80
2017-11-10T22:39:03.874Z,5.80
2017-11-10T22:41:31.337Z,5.80
2017-11-10T22:43:58.846Z,5.80
2017-11-10T22:46:26.449Z,5.80
2017-11-10T22:48:53.933Z,5.90
2017-11-10T22:51:21.533Z,6.00
2017-11-10T22:53:48.981Z,6.00
2017-11-10T22:56:16.493Z,6.00
2017-11-10T22:58:43.946Z,6.00
2017-11-10T23:01:11.455Z,6.00
2017-11-10T23:03:38.910Z,5.90
2017-11-10T23:06:07.149Z,5.70
2017-11-10T23:08:34.610Z,5.70
2017-11-10T23:11:02.827Z,5.60
2017-11-10T23:13:30.278Z,5.60
2017-11-10T23:15:59.237Z,5.60
2017-11-10T23:18:26.809Z,5.60
2017-11-10T23:20:54.353Z,5.60
2017-11-10T23:23:21.897Z,5.50
2017-11-10T23:25:49.376Z,5.60
2017-11-10T23:28:16.821Z,5.60
2017-11-10T23:30:44.270Z,5.70
2017-11-10T23:33:11.734Z,5.70
2017-11-10T23:35:39.229Z,5.70
2017-11-10T23:38:06.860Z,5.60
2017-11-10T23:40:35.083Z,5.60
2017-11-10T23:43:02.571Z,5.60
2017-11-10T23:45:30.822Z,5.60
2017-11-10T23:47:59.044Z,5.60
2017-11-10T23:50:26.517Z,5.50
2017-11-10T23:52:54.061Z,5.60
2017-11-10T23:55:21.601Z,5.60
2017-11-10T23:57:49.141Z,5.60
